KHON/HON METAR and TAF weather

Enter ICAO airport designator
Station Type Date Time Source
KHON METAR 2020/10/22 03:55 UTC NOAA

KHON 220355Z AUTO 07007KT 10SM SCT027 OVC055 01/M01 A3011 RMK AO2 SLP211 T00061011


Station Type Date Time Source
KHON Decoded METAR 2020/10/22 03:55 UTC NOAA

HURON REGIONAL AIRPORT, SD, United States (KHON) 44-23N 098-14W 390M
Oct 21, 2020 - 11:55 PM EDT / 2020.10.22 0355 UTC
Wind: from the ENE (070 degrees) at 8 MPH (7 KT):0
Visibility: 10 mile(s):0
Sky conditions: overcast
Temperature: 33.1 F (0.6 C)
Windchill: 26 F (-3 C):1
Dew Point: 30.0 F (-1.1 C)
Relative Humidity: 88%
Pressure (altimeter): 30.11 in. Hg (1019 hPa)
ob: KHON 220355Z AUTO 07007KT 10SM SCT027 OVC055 01/M01 A3011 RMK AO2 SLP211 T00061011
cycle: 4

Station Type Date Time Source
KHON TAF 2020/10/22 03:18 UTC NOAA

TAF
AMD KHON 220316Z 2203/2224 08008KT P6SM FEW012 OVC025
FM221000 07012G19KT 6SM -DZSN BR OVC013
TEMPO 2211/2213 4SM -FZDZSN BR
FM221300 06012G18KT 3SM -SN BR OVC009
FM221700 03012G17KT 1 1/2SM -SN BR OVC006
FM222100 36014G20KT 3SM -FZDZSN BR OVC007

Example: see airport list